createdAt,value
2018-08-12T00:00:48.562Z,88.40
2018-08-12T00:03:17.260Z,88.40
2018-08-12T00:05:45.489Z,88.60
2018-08-12T00:08:13.744Z,88.80
2018-08-12T00:10:41.971Z,89.20
2018-08-12T00:13:10.238Z,89.60
2018-08-12T00:15:38.475Z,90.00
2018-08-12T00:18:06.730Z,89.80
2018-08-12T00:20:34.984Z,90.10
2018-08-12T00:23:03.231Z,90.20
2018-08-12T00:25:31.437Z,90.10
2018-08-12T00:27:59.681Z,90.30
2018-08-12T00:30:27.897Z,90.50
2018-08-12T00:32:56.129Z,90.30
2018-08-12T00:35:24.348Z,90.60
2018-08-12T00:37:52.563Z,90.70
2018-08-12T00:40:20.780Z,90.90
2018-08-12T00:42:48.998Z,90.90
2018-08-12T00:45:18.678Z,91.10
2018-08-12T00:47:47.048Z,91.10
2018-08-12T00:50:16.157Z,91.30
2018-08-12T00:52:44.515Z,91.30
2018-08-12T00:55:14.191Z,91.40
2018-08-12T00:57:43.259Z,91.60
2018-08-12T01:00:14.810Z,91.50
2018-08-12T01:02:43.045Z,91.80
2018-08-12T01:05:13.308Z,91.60
2018-08-12T01:07:41.891Z,91.60
2018-08-12T01:10:10.872Z,91.70
2018-08-12T01:12:39.178Z,91.70
2018-08-12T01:15:10.007Z,92.10
2018-08-12T01:17:38.263Z,92.30
2018-08-12T01:20:07.530Z,92.50
2018-08-12T01:22:35.718Z,92.40
2018-08-12T01:25:04.690Z,92.40
2018-08-12T01:27:32.916Z,92.30
2018-08-12T01:30:01.160Z,92.40
2018-08-12T01:32:29.409Z,92.50
2018-08-12T01:34:57.630Z,92.50
2018-08-12T01:37:25.868Z,92.70
2018-08-12T01:40:01.158Z,92.80
2018-08-12T01:42:29.416Z,92.70
2018-08-12T01:44:57.647Z,92.60
2018-08-12T01:47:25.875Z,92.40
2018-08-12T01:49:54.197Z,92.20
2018-08-12T01:52:22.442Z,92.10
2018-08-12T01:54:50.662Z,92.10
2018-08-12T01:57:18.892Z,92.20
2018-08-12T01:59:47.548Z,92.30
2018-08-12T02:02:15.946Z,92.60
2018-08-12T02:04:44.820Z,92.40
2018-08-12T02:07:15.250Z,92.50
2018-08-12T02:09:43.668Z,92.80
2018-08-12T02:12:11.906Z,92.70
2018-08-12T02:14:40.131Z,92.80
2018-08-12T02:17:08.692Z,93.00
2018-08-12T02:19:36.925Z,93.30
2018-08-12T02:22:05.220Z,93.20
2018-08-12T02:24:33.460Z,93.90
2018-08-12T02:27:01.767Z,94.00
2018-08-12T02:29:30.108Z,93.90
2018-08-12T02:31:58.398Z,94.30
2018-08-12T02:34:26.658Z,94.40
2018-08-12T02:36:54.941Z,94.70
2018-08-12T02:39:23.151Z,94.70
2018-08-12T02:41:51.375Z,94.60
2018-08-12T02:44:19.600Z,94.90
2018-08-12T02:46:47.845Z,95.00
2018-08-12T02:49:16.106Z,95.10
2018-08-12T02:51:44.312Z,95.50
2018-08-12T02:54:12.558Z,95.70
2018-08-12T02:56:40.850Z,96.10
2018-08-12T02:59:09.086Z,96.60
2018-08-12T03:01:37.289Z,96.90
2018-08-12T03:04:05.580Z,96.90
2018-08-12T03:06:33.759Z,97.70
2018-08-12T03:09:01.956Z,97.80
2018-08-12T03:11:30.382Z,97.50
2018-08-12T03:13:58.629Z,97.80
2018-08-12T03:16:26.839Z,98.50
2018-08-12T03:18:55.096Z,98.90
2018-08-12T03:21:23.323Z,99.20
2018-08-12T03:23:51.561Z,99.30
2018-08-12T03:26:19.795Z,99.50
2018-08-12T03:28:48.096Z,99.90
2018-08-12T03:31:16.307Z,99.90
2018-08-12T03:33:44.569Z,99.90
2018-08-12T03:36:12.785Z,99.90
2018-08-12T03:38:41.015Z,99.90
2018-08-12T03:41:09.274Z,99.90
2018-08-12T03:43:37.481Z,99.90
2018-08-12T03:46:05.778Z,99.90
2018-08-12T03:48:34.058Z,99.90
2018-08-12T03:51:02.300Z,99.90
2018-08-12T03:53:30.570Z,99.90
2018-08-12T03:55:58.968Z,99.90
2018-08-12T03:58:27.261Z,99.90
2018-08-12T04:00:55.438Z,99.90
2018-08-12T04:03:23.637Z,99.90
2018-08-12T04:05:51.878Z,99.90
2018-08-12T04:08:20.136Z,99.90
2018-08-12T04:10:48.438Z,99.90
2018-08-12T04:13:16.728Z,99.90
2018-08-12T04:15:45.004Z,99.90
2018-08-12T04:18:13.214Z,99.90
2018-08-12T04:20:41.464Z,99.90
2018-08-12T04:23:09.713Z,99.90
2018-08-12T04:25:37.948Z,99.90
2018-08-12T04:28:06.151Z,99.50
2018-08-12T04:30:34.422Z,98.80
2018-08-12T04:33:02.684Z,97.60
2018-08-12T04:35:30.907Z,96.60
2018-08-12T04:37:59.104Z,96.10
2018-08-12T04:40:27.324Z,95.40
2018-08-12T04:42:55.582Z,95.20
2018-08-12T04:45:23.788Z,94.70
2018-08-12T04:47:52.062Z,94.30
2018-08-12T04:50:20.269Z,94.20
2018-08-12T04:52:48.479Z,93.80
2018-08-12T04:55:16.857Z,93.70
2018-08-12T04:57:45.071Z,93.50
2018-08-12T05:00:13.306Z,93.40
2018-08-12T05:02:43.572Z,93.20
2018-08-12T05:05:11.779Z,93.10
2018-08-12T05:07:39.999Z,92.70
2018-08-12T05:10:08.976Z,92.60
2018-08-12T05:12:37.403Z,92.50
2018-08-12T05:15:07.149Z,92.10
2018-08-12T05:17:35.416Z,92.10
2018-08-12T05:20:03.714Z,91.70
2018-08-12T05:22:32.201Z,91.60
2018-08-12T05:25:00.622Z,91.40
2018-08-12T05:27:28.876Z,91.30
2018-08-12T05:29:57.157Z,91.70
2018-08-12T05:32:25.426Z,91.00
2018-08-12T05:34:53.924Z,90.90
2018-08-12T05:37:22.166Z,90.80
2018-08-12T05:39:50.448Z,90.70
2018-08-12T05:42:18.728Z,90.30
2018-08-12T05:44:47.016Z,90.10
2018-08-12T05:47:15.578Z,89.70
2018-08-12T05:49:44.089Z,90.00
2018-08-12T05:52:12.352Z,88.00
2018-08-12T05:54:40.588Z,88.20
2018-08-12T05:57:08.872Z,87.60
2018-08-12T05:59:37.492Z,87.30
2018-08-12T06:02:05.717Z,87.20
2018-08-12T06:04:33.931Z,87.70
2018-08-12T06:07:02.115Z,86.80
2018-08-12T06:09:30.288Z,87.00
2018-08-12T06:11:59.804Z,86.00
2018-08-12T06:14:28.160Z,85.60
2018-08-12T06:16:56.432Z,85.20
2018-08-12T06:19:24.965Z,85.10
2018-08-12T06:21:53.220Z,85.50
2018-08-12T06:24:21.479Z,85.10
2018-08-12T06:26:49.719Z,85.30
2018-08-12T06:29:17.981Z,84.50
2018-08-12T06:31:46.185Z,84.20
2018-08-12T06:34:14.462Z,83.50
2018-08-12T06:36:42.667Z,82.70
2018-08-12T06:39:11.941Z,82.70
2018-08-12T06:41:40.245Z,82.40
2018-08-12T06:44:08.530Z,81.40
2018-08-12T06:46:36.877Z,80.50
2018-08-12T06:49:05.384Z,80.40
2018-08-12T06:51:33.681Z,79.10
2018-08-12T06:54:01.969Z,79.20
2018-08-12T06:56:30.246Z,78.40
2018-08-12T06:58:58.999Z,77.80
2018-08-12T07:01:27.283Z,76.80
2018-08-12T07:03:55.545Z,75.50
2018-08-12T07:06:23.805Z,75.50
2018-08-12T07:08:52.099Z,75.00
2018-08-12T07:11:20.361Z,72.50
2018-08-12T07:13:48.540Z,71.30
2018-08-12T07:16:18.659Z,69.50
2018-08-12T07:18:46.850Z,68.20
2018-08-12T07:21:15.000Z,66.80
2018-08-12T07:23:43.227Z,66.20
2018-08-12T07:26:11.482Z,70.70
2018-08-12T07:28:41.121Z,65.90
2018-08-12T07:31:09.299Z,61.80
2018-08-12T07:33:37.470Z,58.60
2018-08-12T07:36:05.692Z,59.00
2018-08-12T07:38:33.894Z,56.00
2018-08-12T07:41:02.016Z,55.30
2018-08-12T07:43:30.196Z,56.80
2018-08-12T07:45:58.407Z,56.90
2018-08-12T07:48:26.580Z,55.60
2018-08-12T07:50:54.749Z,56.30
2018-08-12T07:53:22.913Z,57.90
2018-08-12T07:55:51.094Z,56.00
2018-08-12T07:58:19.241Z,49.40
2018-08-12T08:00:47.392Z,43.00
2018-08-12T08:03:15.554Z,36.70
2018-08-12T08:05:43.724Z,36.00
2018-08-12T08:08:11.925Z,36.30
2018-08-12T08:10:40.104Z,34.70
2018-08-12T08:13:08.273Z,34.90
2018-08-12T08:15:36.425Z,34.00
2018-08-12T08:18:04.742Z,31.90
2018-08-12T08:20:32.900Z,31.50
2018-08-12T08:23:02.330Z,29.90
2018-08-12T08:25:30.670Z,30.30
2018-08-12T08:27:58.930Z,29.80
2018-08-12T08:30:27.277Z,28.70
2018-08-12T08:32:55.471Z,27.30
2018-08-12T08:35:23.644Z,27.60
2018-08-12T08:37:51.862Z,27.30
2018-08-12T08:40:20.045Z,27.60
2018-08-12T08:42:48.203Z,26.50
2018-08-12T08:45:19.489Z,26.60
2018-08-12T08:47:48.886Z,27.50
2018-08-12T08:50:18.060Z,27.10
2018-08-12T08:52:46.238Z,27.80
2018-08-12T08:55:15.021Z,27.50
2018-08-12T08:57:43.752Z,29.00
2018-08-12T09:00:14.056Z,26.90
2018-08-12T09:02:43.860Z,29.00
2018-08-12T09:05:13.312Z,27.50
2018-08-12T09:07:41.936Z,26.60
2018-08-12T09:10:11.903Z,28.30
2018-08-12T09:12:40.101Z,29.60
2018-08-12T09:15:10.428Z,28.40
2018-08-12T09:17:39.132Z,28.10
2018-08-12T09:20:09.316Z,28.90
2018-08-12T09:25:06.456Z,26.80
2018-08-12T09:27:34.903Z,26.50
2018-08-12T09:30:03.913Z,27.70
2018-08-12T09:32:32.137Z,27.40
2018-08-12T09:35:00.296Z,27.50
2018-08-12T09:37:28.483Z,27.20
2018-08-12T09:39:56.768Z,29.60
2018-08-12T09:42:24.957Z,29.30
2018-08-12T09:44:53.133Z,28.00
2018-08-12T09:47:21.576Z,28.60
2018-08-12T09:49:49.827Z,27.00
2018-08-12T09:52:18.398Z,27.90
2018-08-12T09:54:46.652Z,26.50
2018-08-12T09:57:14.819Z,26.60
2018-08-12T09:59:43.030Z,27.00
2018-08-12T10:02:11.404Z,26.20
2018-08-12T10:04:39.608Z,27.90
2018-08-12T10:07:07.835Z,27.30
2018-08-12T10:09:36.060Z,26.70
2018-08-12T10:12:04.420Z,27.20
2018-08-12T10:14:32.624Z,26.80
2018-08-12T10:17:00.793Z,28.80
2018-08-12T10:19:29.228Z,28.60
2018-08-12T10:21:57.420Z,30.00
2018-08-12T10:24:25.595Z,30.90
2018-08-12T10:26:53.765Z,29.00
2018-08-12T10:29:21.990Z,27.70
2018-08-12T10:31:50.068Z,26.80
2018-08-12T10:34:18.255Z,28.50
2018-08-12T10:36:46.401Z,27.00
2018-08-12T10:39:14.556Z,29.10
2018-08-12T10:41:43.084Z,29.00
2018-08-12T10:44:11.294Z,28.40
2018-08-12T10:46:39.417Z,28.40
2018-08-12T10:49:08.142Z,29.60
2018-08-12T10:51:36.313Z,30.00
2018-08-12T10:54:04.475Z,29.70
2018-08-12T10:56:32.632Z,29.70
2018-08-12T10:59:02.832Z,31.40
2018-08-12T11:01:31.113Z,31.50
2018-08-12T11:04:00.114Z,33.00
2018-08-12T11:06:28.477Z,33.20
2018-08-12T11:08:57.078Z,34.50
2018-08-12T11:11:25.370Z,34.80
2018-08-12T11:13:53.580Z,36.40
2018-08-12T11:16:21.809Z,36.20
2018-08-12T11:18:50.128Z,35.20
2018-08-12T11:21:18.362Z,36.00
2018-08-12T11:23:46.557Z,36.10
2018-08-12T11:26:14.837Z,36.30
2018-08-12T11:28:43.163Z,37.40
2018-08-12T11:33:39.368Z,36.90
2018-08-12T11:36:07.613Z,36.30
2018-08-12T11:38:36.020Z,36.70
2018-08-12T11:41:04.620Z,38.70
2018-08-12T11:43:32.765Z,39.10
2018-08-12T11:46:01.060Z,38.90
2018-08-12T11:48:29.291Z,38.60
2018-08-12T11:50:57.491Z,39.00
2018-08-12T11:53:25.750Z,38.10
2018-08-12T11:55:53.944Z,39.00
2018-08-12T11:58:22.212Z,39.90
2018-08-12T12:00:50.461Z,40.00
2018-08-12T12:03:18.752Z,40.70
2018-08-12T12:05:46.949Z,42.00
2018-08-12T12:08:15.226Z,40.10
2018-08-12T12:10:43.496Z,39.40
2018-08-12T12:13:11.804Z,39.30
2018-08-12T12:15:40.056Z,41.00
2018-08-12T12:18:08.339Z,41.10
2018-08-12T12:20:36.720Z,40.60
2018-08-12T12:23:04.922Z,39.40
2018-08-12T12:25:33.164Z,39.10
2018-08-12T12:28:02.136Z,41.50
2018-08-12T12:30:30.469Z,39.80
2018-08-12T12:33:00.355Z,39.80
2018-08-12T12:35:28.659Z,39.40
2018-08-12T12:37:56.932Z,38.60
2018-08-12T12:40:26.225Z,38.90
2018-08-12T12:42:54.553Z,38.50
2018-08-12T12:45:22.962Z,38.90
2018-08-12T12:47:51.413Z,38.30
2018-08-12T12:50:21.422Z,38.20
2018-08-12T12:52:50.648Z,39.00
2018-08-12T12:55:19.749Z,37.80
2018-08-12T12:57:48.196Z,40.00
2018-08-12T13:00:17.653Z,38.80
2018-08-12T13:02:46.081Z,38.90
2018-08-12T13:05:15.692Z,38.20
2018-08-12T13:07:44.948Z,37.00
2018-08-12T13:10:14.088Z,37.80
2018-08-12T13:12:42.896Z,38.60
2018-08-12T13:15:12.028Z,38.30
2018-08-12T13:17:40.763Z,37.70
2018-08-12T13:20:12.850Z,38.50
2018-08-12T13:22:41.478Z,38.30
2018-08-12T13:25:12.346Z,38.80
2018-08-12T13:27:41.104Z,38.80
2018-08-12T13:30:11.870Z,37.40
2018-08-12T13:32:40.980Z,37.70
2018-08-12T13:35:09.216Z,36.60
2018-08-12T13:37:37.932Z,36.60
2018-08-12T13:40:08.470Z,36.20
2018-08-12T13:42:37.329Z,37.30
2018-08-12T13:45:05.708Z,36.80
2018-08-12T13:47:34.073Z,38.80
2018-08-12T13:50:02.404Z,38.20
2018-08-12T13:52:30.619Z,38.80
2018-08-12T13:54:59.185Z,39.20
2018-08-12T13:57:27.478Z,38.80
2018-08-12T13:59:55.749Z,38.70
2018-08-12T14:02:24.388Z,38.40
2018-08-12T14:04:52.596Z,38.50
2018-08-12T14:07:24.800Z,39.30
2018-08-12T14:09:53.719Z,36.20
2018-08-12T14:12:22.884Z,35.40
2018-08-12T14:14:51.092Z,36.50
2018-08-12T14:17:19.321Z,36.00
2018-08-12T14:19:47.536Z,36.10
2018-08-12T14:22:15.784Z,37.90
2018-08-12T14:24:44.042Z,36.80
2018-08-12T14:27:12.495Z,39.20
2018-08-12T14:29:40.799Z,37.00
2018-08-12T14:32:09.071Z,36.40
2018-08-12T14:34:37.297Z,36.10
2018-08-12T14:37:05.926Z,36.40
2018-08-12T14:39:34.188Z,37.10
2018-08-12T14:42:02.454Z,36.70
2018-08-12T14:44:30.714Z,37.00
2018-08-12T14:46:58.922Z,37.70
2018-08-12T14:49:27.184Z,37.00
2018-08-12T14:51:55.449Z,37.60
2018-08-12T14:54:23.712Z,37.30
2018-08-12T14:56:51.959Z,37.40
2018-08-12T14:59:20.186Z,37.80
2018-08-12T15:01:48.408Z,38.00
2018-08-12T15:04:17.140Z,38.50
2018-08-12T15:06:45.423Z,39.40
2018-08-12T15:09:15.464Z,38.50
2018-08-12T15:11:43.709Z,37.60
2018-08-12T15:14:11.964Z,38.00
2018-08-12T15:16:40.244Z,39.40
2018-08-12T15:19:08.565Z,39.10
2018-08-12T15:21:36.825Z,38.40
2018-08-12T15:24:05.116Z,38.60
2018-08-12T15:26:33.396Z,38.90
2018-08-12T15:29:02.955Z,39.70
2018-08-12T15:31:31.253Z,40.80
2018-08-12T15:33:59.452Z,38.60
2018-08-12T15:36:28.202Z,39.70
2018-08-12T15:38:56.424Z,40.70
2018-08-12T15:41:24.690Z,39.50
2018-08-12T15:43:52.936Z,39.20
2018-08-12T15:46:21.241Z,39.00
2018-08-12T15:48:49.509Z,38.60
2018-08-12T15:51:18.854Z,38.40
2018-08-12T15:53:47.103Z,37.90
2018-08-12T15:56:15.637Z,38.80
2018-08-12T15:58:43.938Z,38.70
2018-08-12T16:01:12.244Z,38.60
2018-08-12T16:03:40.456Z,39.50
2018-08-12T16:06:08.708Z,39.70
2018-08-12T16:08:36.938Z,38.80
2018-08-12T16:11:05.190Z,39.10
2018-08-12T16:13:33.996Z,39.00
2018-08-12T16:16:02.338Z,39.40
2018-08-12T16:18:30.548Z,38.30
2018-08-12T16:20:59.600Z,38.40
2018-08-12T16:23:28.525Z,38.00
2018-08-12T16:25:56.784Z,37.40
2018-08-12T16:28:25.053Z,38.50
2018-08-12T16:30:53.358Z,38.10
2018-08-12T16:33:21.621Z,38.10
2018-08-12T16:35:49.839Z,37.70
2018-08-12T16:38:18.000Z,39.90
2018-08-12T16:40:46.187Z,39.10
2018-08-12T16:43:14.332Z,39.90
2018-08-12T16:45:42.479Z,39.10
2018-08-12T16:48:10.652Z,38.80
2018-08-12T16:50:38.822Z,38.00
2018-08-12T16:53:07.000Z,39.40
2018-08-12T16:55:35.224Z,41.00
2018-08-12T16:58:03.776Z,43.20
2018-08-12T17:00:31.932Z,41.70
2018-08-12T17:03:00.150Z,42.80
2018-08-12T17:05:28.363Z,42.10
2018-08-12T17:07:56.532Z,40.10
2018-08-12T17:10:24.703Z,43.50
2018-08-12T17:12:52.902Z,40.00
2018-08-12T17:15:22.340Z,40.00
2018-08-12T17:17:52.297Z,40.20
2018-08-12T17:20:21.507Z,41.40
2018-08-12T17:22:50.657Z,39.40
2018-08-12T17:25:18.906Z,40.00
2018-08-12T17:27:47.906Z,40.10
2018-08-12T17:30:16.800Z,41.70
2018-08-12T17:32:45.000Z,43.10
2018-08-12T17:35:13.177Z,41.90
2018-08-12T17:37:42.499Z,42.80
2018-08-12T17:40:12.217Z,42.90
2018-08-12T17:42:40.438Z,43.20
2018-08-12T17:45:10.080Z,43.20
2018-08-12T17:47:38.723Z,43.20
2018-08-12T17:50:07.788Z,43.30
2018-08-12T17:52:36.108Z,44.50
2018-08-12T17:55:05.019Z,46.00
2018-08-12T17:57:33.159Z,45.20
2018-08-12T18:00:01.639Z,46.40
2018-08-12T18:02:29.993Z,47.10
2018-08-12T18:04:58.152Z,48.10
2018-08-12T18:07:26.311Z,48.50
2018-08-12T18:09:54.468Z,47.20
2018-08-12T18:12:22.620Z,47.50
2018-08-12T18:14:50.918Z,46.80
2018-08-12T18:17:19.124Z,48.10
2018-08-12T18:19:47.296Z,48.20
2018-08-12T18:22:15.459Z,48.60
2018-08-12T18:24:43.681Z,48.00
2018-08-12T18:27:11.856Z,48.60
2018-08-12T18:29:40.036Z,49.40
2018-08-12T18:32:08.236Z,49.00
2018-08-12T18:34:37.847Z,48.40
2018-08-12T18:37:06.001Z,50.20
2018-08-12T18:42:02.872Z,48.30
2018-08-12T18:44:31.029Z,50.00
2018-08-12T18:46:59.247Z,49.60
2018-08-12T18:49:27.443Z,49.60
2018-08-12T18:51:55.607Z,50.30
2018-08-12T18:54:23.803Z,49.90
2018-08-12T18:56:51.978Z,51.50
2018-08-12T18:59:20.133Z,51.60
2018-08-12T19:01:48.491Z,51.90
2018-08-12T19:04:16.660Z,51.10
2018-08-12T19:06:44.823Z,50.70
2018-08-12T19:09:13.016Z,51.90
2018-08-12T19:11:44.840Z,51.90
2018-08-12T19:14:13.085Z,50.70
2018-08-12T19:16:41.373Z,50.20
2018-08-12T19:19:09.696Z,50.80
2018-08-12T19:21:37.940Z,51.00
2018-08-12T19:24:06.300Z,52.00
2018-08-12T19:26:34.999Z,51.30
2018-08-12T19:29:03.355Z,51.80
2018-08-12T19:31:31.562Z,51.90
2018-08-12T19:33:59.830Z,52.00
2018-08-12T19:36:32.033Z,52.20
2018-08-12T19:39:00.389Z,53.10
2018-08-12T19:41:28.762Z,52.80
2018-08-12T19:43:56.994Z,52.70
2018-08-12T19:46:25.256Z,54.00
2018-08-12T19:48:53.585Z,52.80
2018-08-12T19:51:21.887Z,53.00
2018-08-12T19:53:50.156Z,53.10
2018-08-12T19:56:18.615Z,54.10
2018-08-12T19:58:46.974Z,54.70
2018-08-12T20:01:15.199Z,54.70
2018-08-12T20:03:43.463Z,54.40
2018-08-12T20:06:12.133Z,54.20
2018-08-12T20:08:40.408Z,53.90
2018-08-12T20:11:09.398Z,54.40
2018-08-12T20:13:37.604Z,53.40
2018-08-12T20:16:05.879Z,53.30
2018-08-12T20:18:34.138Z,52.80
2018-08-12T20:21:02.373Z,52.00
2018-08-12T20:23:30.681Z,51.90
2018-08-12T20:25:58.938Z,52.30
2018-08-12T20:28:27.156Z,52.30
2018-08-12T20:30:56.733Z,52.20
2018-08-12T20:33:25.072Z,52.40
2018-08-12T20:35:54.561Z,52.70
2018-08-12T20:38:23.034Z,52.40
2018-08-12T20:40:51.312Z,52.50
2018-08-12T20:43:19.565Z,52.70
2018-08-12T20:45:47.876Z,52.90
2018-08-12T20:48:16.150Z,52.80
2018-08-12T20:50:44.379Z,52.80
2018-08-12T20:53:12.565Z,53.10
2018-08-12T20:55:40.807Z,53.00
2018-08-12T20:58:09.036Z,53.00
2018-08-12T21:00:37.323Z,53.20
2018-08-12T21:03:05.583Z,53.00
2018-08-12T21:05:33.802Z,53.40
2018-08-12T21:08:01.997Z,54.10
2018-08-12T21:10:30.269Z,53.40
2018-08-12T21:12:58.559Z,53.40
2018-08-12T21:15:26.885Z,53.40
2018-08-12T21:17:55.121Z,53.70
2018-08-12T21:20:23.459Z,53.70
2018-08-12T21:22:51.670Z,53.90
2018-08-12T21:27:47.908Z,53.70
2018-08-12T21:30:16.099Z,54.40
2018-08-12T21:32:44.355Z,54.40
2018-08-12T21:35:12.669Z,54.50
2018-08-12T21:37:40.914Z,54.80
2018-08-12T21:40:09.191Z,54.90
2018-08-12T21:42:37.462Z,55.00
2018-08-12T21:45:05.776Z,55.00
2018-08-12T21:47:34.059Z,55.00
2018-08-12T21:50:02.333Z,56.10
2018-08-12T21:52:30.593Z,55.30
2018-08-12T21:54:58.914Z,55.30
2018-08-12T21:57:27.225Z,55.40
2018-08-12T21:59:55.508Z,55.40
2018-08-12T22:02:23.821Z,55.50
2018-08-12T22:04:52.081Z,55.70
2018-08-12T22:07:20.412Z,55.90
2018-08-12T22:09:48.694Z,56.00
2018-08-12T22:12:17.115Z,56.20
2018-08-12T22:14:45.365Z,56.20
2018-08-12T22:17:13.660Z,56.40
2018-08-12T22:19:41.966Z,56.40
2018-08-12T22:22:10.175Z,56.40
2018-08-12T22:24:38.484Z,56.60
2018-08-12T22:27:07.077Z,56.60
2018-08-12T22:29:35.343Z,56.70
2018-08-12T22:32:03.669Z,56.70
2018-08-12T22:34:31.961Z,56.80
2018-08-12T22:37:00.281Z,56.90
2018-08-12T22:39:28.480Z,57.00
2018-08-12T22:41:56.735Z,57.30
2018-08-12T22:44:25.067Z,57.40
2018-08-12T22:46:53.368Z,58.00
2018-08-12T22:49:22.040Z,57.70
2018-08-12T22:51:50.333Z,57.80
2018-08-12T22:54:18.597Z,57.80
2018-08-12T22:56:47.151Z,57.90
2018-08-12T22:59:15.378Z,58.00
2018-08-12T23:01:43.631Z,57.90
2018-08-12T23:04:11.908Z,58.00
2018-08-12T23:06:40.207Z,57.90
2018-08-12T23:09:09.784Z,57.90
2018-08-12T23:11:38.375Z,57.80
2018-08-12T23:14:06.777Z,57.80
2018-08-12T23:16:46.821Z,57.90
2018-08-12T23:19:15.082Z,57.90
2018-08-12T23:21:43.362Z,57.90
2018-08-12T23:24:11.625Z,57.80
2018-08-12T23:26:39.895Z,57.90
2018-08-12T23:29:08.139Z,57.90
2018-08-12T23:31:36.421Z,57.90
2018-08-12T23:34:04.636Z,58.10
2018-08-12T23:36:32.907Z,58.20
2018-08-12T23:39:01.304Z,58.60
2018-08-12T23:41:29.553Z,58.80
2018-08-12T23:43:57.853Z,58.80
2018-08-12T23:46:26.133Z,59.10
2018-08-12T23:48:56.076Z,59.20
2018-08-12T23:51:24.406Z,59.40
2018-08-12T23:53:52.635Z,59.60
2018-08-12T23:56:20.889Z,59.80
2018-08-12T23:58:49.163Z,60.10
